createdAt,value
2018-07-15T00:00:36.325Z,9.03
2018-07-15T00:03:05.552Z,8.60
2018-07-15T00:05:35.081Z,11.60
2018-07-15T00:08:04.229Z,8.90
2018-07-15T00:10:40.955Z,9.00
2018-07-15T00:13:10.115Z,12.33
2018-07-15T00:15:39.424Z,12.10
2018-07-15T00:18:08.817Z,11.17
2018-07-15T00:20:38.177Z,8.00
2018-07-15T00:23:07.764Z,7.93
2018-07-15T00:25:37.375Z,11.40
2018-07-15T00:28:06.453Z,11.17
2018-07-15T00:30:35.904Z,7.00
2018-07-15T00:33:05.260Z,9.23
2018-07-15T00:35:34.691Z,9.63
2018-07-15T00:38:03.927Z,8.37
2018-07-15T00:40:33.112Z,10.07
2018-07-15T00:43:02.528Z,10.03
2018-07-15T00:45:31.989Z,10.87
2018-07-15T00:48:01.169Z,11.40
2018-07-15T00:50:29.686Z,9.20
2018-07-15T00:52:59.484Z,8.80
2018-07-15T00:55:28.525Z,14.07
2018-07-15T00:57:57.917Z,11.17
2018-07-15T01:00:32.290Z,10.20
2018-07-15T01:03:01.443Z,10.03
2018-07-15T01:05:30.592Z,9.53
2018-07-15T01:07:59.859Z,9.47
2018-07-15T01:10:28.618Z,10.10
2018-07-15T01:12:57.807Z,13.77
2018-07-15T01:15:27.408Z,11.77
2018-07-15T01:17:56.512Z,10.07
2018-07-15T01:20:25.735Z,8.77
2018-07-15T01:22:54.890Z,9.30
2018-07-15T01:25:24.100Z,10.63
2018-07-15T01:27:53.252Z,9.97
2018-07-15T01:30:22.734Z,10.43
2018-07-15T01:32:52.640Z,12.73
2018-07-15T01:35:21.929Z,12.23
2018-07-15T01:37:51.342Z,11.57
2018-07-15T01:40:20.535Z,12.60
2018-07-15T01:42:49.540Z,8.70
2018-07-15T01:45:18.600Z,10.53
2018-07-15T01:47:47.787Z,10.43
2018-07-15T01:50:16.992Z,12.30
2018-07-15T01:52:46.216Z,10.30
2018-07-15T01:55:15.413Z,10.53
2018-07-15T01:57:44.492Z,9.30
2018-07-15T02:00:13.580Z,11.77
2018-07-15T02:02:42.793Z,10.17
2018-07-15T02:05:11.919Z,10.00
2018-07-15T02:07:41.279Z,9.07
2018-07-15T02:10:10.459Z,12.03
2018-07-15T02:12:39.626Z,11.70
2018-07-15T02:15:08.819Z,13.53
2018-07-15T02:17:37.856Z,11.17
2018-07-15T02:20:07.246Z,9.70
2018-07-15T02:22:36.784Z,18.40
2018-07-15T02:25:05.418Z,10.40
2018-07-15T02:27:34.531Z,10.50
2018-07-15T02:30:03.885Z,10.93
2018-07-15T02:32:33.295Z,9.50
2018-07-15T02:35:02.820Z,10.67
2018-07-15T02:37:32.205Z,9.13
2018-07-15T02:40:01.411Z,13.17
2018-07-15T02:42:30.741Z,12.17
2018-07-15T02:44:59.913Z,10.50
2018-07-15T02:47:29.135Z,9.63
2018-07-15T02:49:58.490Z,10.50
2018-07-15T02:52:27.923Z,8.80
2018-07-15T02:54:57.078Z,8.77
2018-07-15T02:57:26.323Z,9.50
2018-07-15T02:59:55.668Z,17.10
2018-07-15T03:02:24.344Z,22.20
2018-07-15T03:04:53.608Z,19.80
2018-07-15T03:07:22.887Z,13.10
2018-07-15T03:09:52.367Z,9.63
2018-07-15T03:12:21.373Z,11.20
2018-07-15T03:14:50.599Z,8.63
2018-07-15T03:17:25.256Z,10.07
2018-07-15T03:19:54.713Z,10.50
2018-07-15T03:22:23.992Z,12.80
2018-07-15T03:24:53.583Z,13.53
2018-07-15T03:27:23.089Z,11.70
2018-07-15T03:29:52.539Z,10.57
2018-07-15T03:32:21.891Z,10.00
2018-07-15T03:34:51.392Z,10.37
2018-07-15T03:37:20.699Z,11.23
2018-07-15T03:39:50.009Z,9.03
2018-07-15T03:42:19.540Z,13.73
2018-07-15T03:44:48.708Z,13.57
2018-07-15T03:47:18.044Z,11.07
2018-07-15T03:49:47.394Z,12.53
2018-07-15T03:52:16.523Z,10.47
2018-07-15T03:54:45.742Z,12.20
2018-07-15T03:57:15.147Z,10.83
2018-07-15T03:59:44.197Z,12.50
2018-07-15T04:02:13.665Z,14.07
2018-07-15T04:04:42.343Z,10.90
2018-07-15T04:07:11.988Z,15.47
2018-07-15T04:09:41.115Z,12.97
2018-07-15T04:12:10.351Z,9.83
2018-07-15T04:14:39.530Z,10.57
2018-07-15T04:17:08.976Z,9.20
2018-07-15T04:19:38.575Z,12.10
2018-07-15T04:22:08.080Z,10.73
2018-07-15T04:24:37.533Z,12.27
2018-07-15T04:27:06.572Z,10.77
2018-07-15T04:29:35.785Z,11.53
2018-07-15T04:32:05.052Z,13.00
2018-07-15T04:34:33.771Z,12.20
2018-07-15T04:37:03.016Z,12.60
2018-07-15T04:39:32.865Z,12.40
2018-07-15T04:42:02.139Z,10.20
2018-07-15T04:44:31.516Z,13.57
2018-07-15T04:47:00.677Z,10.90
2018-07-15T04:49:30.016Z,12.37
2018-07-15T04:51:59.059Z,14.30
2018-07-15T04:54:28.307Z,11.83
2018-07-15T04:56:57.500Z,11.90
2018-07-15T04:59:27.107Z,12.67
2018-07-15T05:01:56.299Z,13.30
2018-07-15T05:04:25.758Z,12.33
2018-07-15T05:06:55.021Z,13.37
2018-07-15T05:09:24.156Z,14.53
2018-07-15T05:11:53.588Z,13.47
2018-07-15T05:14:22.705Z,14.10
2018-07-15T05:16:52.005Z,14.80
2018-07-15T05:19:21.304Z,16.73
2018-07-15T05:21:50.724Z,14.33
2018-07-15T05:24:19.744Z,18.57
2018-07-15T05:26:48.879Z,18.43
2018-07-15T05:29:18.171Z,17.73
2018-07-15T05:31:47.428Z,19.13
2018-07-15T05:34:16.624Z,20.10
2018-07-15T05:36:45.939Z,14.70
2018-07-15T05:39:14.927Z,18.30
2018-07-15T05:41:44.476Z,15.90
2018-07-15T05:44:13.782Z,19.33
2018-07-15T05:46:42.829Z,17.20
2018-07-15T05:49:12.066Z,14.00
2018-07-15T05:51:41.381Z,18.33
2018-07-15T05:54:10.534Z,15.07
2018-07-15T05:56:39.507Z,17.87
2018-07-15T05:59:08.521Z,14.83
2018-07-15T06:01:37.739Z,12.23
2018-07-15T06:04:07.138Z,17.43
2018-07-15T06:06:36.565Z,14.50
2018-07-15T06:09:06.983Z,13.07
2018-07-15T06:11:36.194Z,14.33
2018-07-15T06:14:05.328Z,14.77
2018-07-15T06:16:35.028Z,17.17
2018-07-15T06:19:04.290Z,11.83
2018-07-15T06:21:33.432Z,12.70
2018-07-15T06:24:02.628Z,13.37
2018-07-15T06:26:31.831Z,12.10
2018-07-15T06:29:01.544Z,16.83
2018-07-15T06:31:30.890Z,11.60
2018-07-15T06:34:00.074Z,10.43
2018-07-15T06:36:29.220Z,10.90
2018-07-15T06:38:58.515Z,11.37
2018-07-15T06:41:27.768Z,12.63
2018-07-15T06:43:57.200Z,12.33
2018-07-15T06:46:26.323Z,10.73
2018-07-15T06:48:55.592Z,11.43
2018-07-15T06:51:24.797Z,10.10
2018-07-15T06:53:54.050Z,10.00
2018-07-15T06:56:23.742Z,9.63
2018-07-15T06:58:53.234Z,9.30
2018-07-15T07:01:22.684Z,10.53
2018-07-15T07:03:51.863Z,9.43
2018-07-15T07:06:21.012Z,9.70
2018-07-15T07:08:50.319Z,12.07
2018-07-15T07:11:19.492Z,9.47
2018-07-15T07:13:48.741Z,7.23
2018-07-15T07:16:17.809Z,8.97
2018-07-15T07:18:47.127Z,9.07
2018-07-15T07:21:16.568Z,8.20
2018-07-15T07:23:45.801Z,7.80
2018-07-15T07:26:15.047Z,9.43
2018-07-15T07:28:44.187Z,7.30
2018-07-15T07:31:13.533Z,9.47
2018-07-15T07:33:43.348Z,12.17
2018-07-15T07:36:12.592Z,7.67
2018-07-15T07:38:42.242Z,7.63
2018-07-15T07:41:12.206Z,8.60
2018-07-15T07:43:41.355Z,12.20
2018-07-15T07:46:10.916Z,6.00
2018-07-15T07:48:40.062Z,7.07
2018-07-15T07:51:09.499Z,8.03
2018-07-15T07:53:38.585Z,6.57
2018-07-15T07:56:07.863Z,5.93
2018-07-15T07:58:37.093Z,5.47
2018-07-15T08:01:06.196Z,5.83
2018-07-15T08:03:35.468Z,5.37
2018-07-15T08:06:04.744Z,5.50
2018-07-15T08:08:34.103Z,4.53
2018-07-15T08:11:03.427Z,9.80
2018-07-15T08:13:33.089Z,4.90
2018-07-15T08:16:02.680Z,6.00
2018-07-15T08:18:32.050Z,5.97
2018-07-15T08:21:01.355Z,4.17
2018-07-15T08:23:30.730Z,5.50
2018-07-15T08:25:59.979Z,5.03
2018-07-15T08:28:29.502Z,7.70
2018-07-15T08:31:20.116Z,6.60
2018-07-15T08:33:48.681Z,4.13
2018-07-15T08:36:18.248Z,6.20
2018-07-15T08:38:47.521Z,4.05
2018-07-15T08:41:16.686Z,3.00
2018-07-15T08:43:45.907Z,4.23
2018-07-15T08:46:15.372Z,6.67
2018-07-15T08:48:44.427Z,4.70
2018-07-15T08:51:13.510Z,6.03
2018-07-15T08:53:42.794Z,3.70
2018-07-15T08:56:12.006Z,5.58
2018-07-15T08:58:41.019Z,3.47
2018-07-15T09:01:10.365Z,5.25
2018-07-15T09:03:39.640Z,3.60
2018-07-15T09:06:09.047Z,5.50
2018-07-15T09:08:38.273Z,3.75
2018-07-15T09:11:07.708Z,4.35
2018-07-15T09:13:37.058Z,4.03
2018-07-15T09:16:07.604Z,3.98
2018-07-15T09:18:36.665Z,3.67
2018-07-15T09:21:05.882Z,7.58
2018-07-15T09:23:35.162Z,11.40
2018-07-15T09:26:04.482Z,7.22
2018-07-15T09:28:33.146Z,6.78
2018-07-15T09:31:02.564Z,5.53
2018-07-15T09:33:31.973Z,4.45
2018-07-15T09:36:00.871Z,5.60
2018-07-15T09:38:30.339Z,4.78
2018-07-15T09:40:59.749Z,4.72
2018-07-15T09:43:28.948Z,4.92
2018-07-15T09:45:58.490Z,4.72
2018-07-15T09:48:27.952Z,4.45
2018-07-15T09:50:57.256Z,5.50
2018-07-15T09:53:26.837Z,4.22
2018-07-15T09:55:56.432Z,4.67
2018-07-15T09:58:25.757Z,4.50
2018-07-15T10:00:55.303Z,5.37
2018-07-15T10:03:25.801Z,8.35
2018-07-15T10:05:55.695Z,7.12
2018-07-15T10:08:25.078Z,3.80
2018-07-15T10:10:54.328Z,4.25
2018-07-15T10:13:23.671Z,5.15
2018-07-15T10:15:53.063Z,5.70
2018-07-15T10:18:22.058Z,4.95
2018-07-15T10:20:51.420Z,6.53
2018-07-15T10:23:20.684Z,4.42
2018-07-15T10:25:49.937Z,5.25
2018-07-15T10:28:19.212Z,4.30
2018-07-15T10:30:48.595Z,4.80
2018-07-15T10:33:17.944Z,5.12
2018-07-15T10:35:47.391Z,3.98
2018-07-15T10:38:16.875Z,5.80
2018-07-15T10:40:46.050Z,4.53
2018-07-15T10:43:15.500Z,4.75
2018-07-15T10:45:44.804Z,4.58
2018-07-15T10:48:14.006Z,4.12
2018-07-15T10:50:43.783Z,5.37
2018-07-15T10:53:13.264Z,7.50
2018-07-15T10:55:42.805Z,5.12
2018-07-15T10:58:12.021Z,4.72
2018-07-15T11:00:41.612Z,4.53
2018-07-15T11:03:11.024Z,4.22
2018-07-15T11:05:40.571Z,4.42
2018-07-15T11:08:09.818Z,4.17
2018-07-15T11:10:39.222Z,7.35
2018-07-15T11:13:08.511Z,5.72
2018-07-15T11:15:37.800Z,4.40
2018-07-15T11:18:07.265Z,5.72
2018-07-15T11:20:37.469Z,3.80
2018-07-15T11:23:06.763Z,6.28
2018-07-15T11:25:36.158Z,4.53
2018-07-15T11:28:06.208Z,6.10
2018-07-15T11:30:35.452Z,4.80
2018-07-15T11:33:04.790Z,4.15
2018-07-15T11:35:34.028Z,5.20
2018-07-15T11:38:03.330Z,5.33
2018-07-15T11:40:32.625Z,4.80
2018-07-15T11:43:01.774Z,5.20
2018-07-15T11:45:31.443Z,5.33
2018-07-15T11:48:00.666Z,4.12
2018-07-15T11:50:30.045Z,4.28
2018-07-15T11:52:59.347Z,7.15
2018-07-15T11:55:28.634Z,6.90
2018-07-15T11:57:57.832Z,5.53
2018-07-15T12:00:27.652Z,10.60
2018-07-15T12:02:56.963Z,5.45
2018-07-15T12:05:26.383Z,5.95
2018-07-15T12:07:55.550Z,4.10
2018-07-15T12:10:24.866Z,3.90
2018-07-15T12:12:54.040Z,3.98
2018-07-15T12:15:23.990Z,6.33
2018-07-15T12:17:53.168Z,3.62
2018-07-15T12:20:22.804Z,4.00
2018-07-15T12:22:52.189Z,3.72
2018-07-15T12:25:21.643Z,4.45
2018-07-15T12:27:50.963Z,5.28
2018-07-15T12:30:20.218Z,4.30
2018-07-15T12:32:49.561Z,3.70
2018-07-15T12:35:18.950Z,4.72
2018-07-15T12:37:48.344Z,3.30
2018-07-15T12:40:17.646Z,4.85
2018-07-15T12:42:47.239Z,3.55
2018-07-15T12:45:16.635Z,5.90
2018-07-15T12:47:45.938Z,3.67
2018-07-15T12:50:15.607Z,3.75
2018-07-15T12:52:45.330Z,6.20
2018-07-15T12:55:15.153Z,4.00
2018-07-15T12:57:44.365Z,5.67
2018-07-15T13:00:13.788Z,4.97
2018-07-15T13:02:43.227Z,4.90
2018-07-15T13:05:12.518Z,4.67
2018-07-15T13:07:41.614Z,3.87
2018-07-15T13:10:10.755Z,4.83
2018-07-15T13:12:40.055Z,5.58
2018-07-15T13:15:09.427Z,4.70
2018-07-15T13:17:38.691Z,4.40
2018-07-15T13:20:08.534Z,6.50
2018-07-15T13:22:38.005Z,4.45
2018-07-15T13:25:07.366Z,4.47
2018-07-15T13:27:36.667Z,4.60
2018-07-15T13:30:06.519Z,7.53
2018-07-15T13:32:35.720Z,6.25
2018-07-15T13:35:05.390Z,3.37
2018-07-15T13:37:34.925Z,5.30
2018-07-15T13:40:04.808Z,3.95
2018-07-15T13:42:34.183Z,5.12
2018-07-15T13:45:03.559Z,3.52
2018-07-15T13:47:32.666Z,5.15
2018-07-15T13:50:02.147Z,4.75
2018-07-15T13:52:31.301Z,3.98
2018-07-15T13:55:00.496Z,4.17
2018-07-15T13:57:30.241Z,4.15
2018-07-15T13:59:59.284Z,9.48
2018-07-15T14:02:28.875Z,44.35
2018-07-15T14:04:59.718Z,5.53
2018-07-15T14:07:29.313Z,5.15
2018-07-15T14:09:58.444Z,3.52
2018-07-15T14:12:27.706Z,4.58
2018-07-15T14:14:57.124Z,7.28
2018-07-15T14:17:26.346Z,6.55
2018-07-15T14:19:55.932Z,3.52
2018-07-15T14:22:25.333Z,3.65
2018-07-15T14:24:54.462Z,3.90
2018-07-15T14:27:24.249Z,3.87
2018-07-15T14:29:53.582Z,4.08
2018-07-15T14:32:23.276Z,4.65
2018-07-15T14:34:52.498Z,3.62
2018-07-15T14:37:25.267Z,3.87
2018-07-15T14:39:55.295Z,5.28
2018-07-15T14:42:24.548Z,4.10
2018-07-15T14:44:53.861Z,4.08
2018-07-15T14:47:23.278Z,3.85
2018-07-15T14:49:54.029Z,4.55
2018-07-15T14:52:23.561Z,3.62
2018-07-15T14:54:52.925Z,3.98
2018-07-15T14:57:21.949Z,3.75
2018-07-15T14:59:51.367Z,5.55
2018-07-15T15:02:20.647Z,3.77
2018-07-15T15:04:49.900Z,4.40
2018-07-15T15:07:19.570Z,4.40
2018-07-15T15:09:48.951Z,3.92
2018-07-15T15:12:18.252Z,4.35
2018-07-15T15:14:47.430Z,4.22
2018-07-15T15:17:16.805Z,3.72
2018-07-15T15:19:45.808Z,6.35
2018-07-15T15:22:15.768Z,3.87
2018-07-15T15:24:45.234Z,3.70
2018-07-15T15:27:14.599Z,3.90
2018-07-15T15:29:43.784Z,4.05
2018-07-15T15:32:12.977Z,4.40
2018-07-15T15:34:42.164Z,3.50
2018-07-15T15:37:11.421Z,4.20
2018-07-15T15:39:40.516Z,4.50
2018-07-15T15:42:10.057Z,3.70
2018-07-15T15:44:38.850Z,3.50
2018-07-15T15:47:08.375Z,3.37
2018-07-15T15:49:37.524Z,3.08
2018-07-15T15:52:07.121Z,4.70
2018-07-15T15:54:36.756Z,3.25
2018-07-15T15:57:06.294Z,8.95
2018-07-15T15:59:35.615Z,5.22
2018-07-15T16:02:04.856Z,3.55
2018-07-15T16:04:33.963Z,4.47
2018-07-15T16:07:03.464Z,4.17
2018-07-15T16:09:32.710Z,3.50
2018-07-15T16:12:02.145Z,2.98
2018-07-15T16:14:31.575Z,4.37
2018-07-15T16:17:00.710Z,4.37
2018-07-15T16:19:29.949Z,3.17
2018-07-15T16:21:59.048Z,5.10
2018-07-15T16:24:28.282Z,3.35
2018-07-15T16:26:57.491Z,2.80
2018-07-15T16:29:26.703Z,3.00
2018-07-15T16:31:56.283Z,3.67
2018-07-15T16:34:25.315Z,2.67
2018-07-15T16:36:54.831Z,3.30
2018-07-15T16:39:24.059Z,2.95
2018-07-15T16:41:53.391Z,4.25
2018-07-15T16:44:22.162Z,8.28
2018-07-15T16:46:51.762Z,5.42
2018-07-15T16:49:21.156Z,6.90
2018-07-15T16:51:50.422Z,3.30
2018-07-15T16:54:19.620Z,3.15
2018-07-15T16:56:48.980Z,2.72
2018-07-15T16:59:18.442Z,3.08
2018-07-15T17:01:48.558Z,3.00
2018-07-15T17:04:17.853Z,3.80
2018-07-15T17:06:47.100Z,6.12
2018-07-15T17:09:16.064Z,3.80
2018-07-15T17:11:45.435Z,3.62
2018-07-15T17:14:14.628Z,4.67
2018-07-15T17:16:43.919Z,3.42
2018-07-15T17:19:13.038Z,3.98
2018-07-15T17:21:42.424Z,4.28
2018-07-15T17:24:11.563Z,3.40
2018-07-15T17:26:41.033Z,3.33
2018-07-15T17:29:10.749Z,5.15
2018-07-15T17:31:39.990Z,4.42
2018-07-15T17:34:09.222Z,10.65
2018-07-15T17:36:38.637Z,4.58
2018-07-15T17:39:07.892Z,4.12
2018-07-15T17:41:37.126Z,3.83
2018-07-15T17:44:06.551Z,5.40
2018-07-15T17:46:35.674Z,3.50
2018-07-15T17:49:04.890Z,5.03
2018-07-15T17:51:34.111Z,5.37
2018-07-15T17:54:03.867Z,5.60
2018-07-15T17:56:33.242Z,4.22
2018-07-15T17:59:02.592Z,4.08
2018-07-15T18:01:34.228Z,4.78
2018-07-15T18:04:03.575Z,5.20
2018-07-15T18:06:33.145Z,4.33
2018-07-15T18:09:02.513Z,4.78
2018-07-15T18:11:31.827Z,4.90
2018-07-15T18:14:01.380Z,6.60
2018-07-15T18:16:30.556Z,11.30
2018-07-15T18:18:59.789Z,13.97
2018-07-15T18:21:28.915Z,12.53
2018-07-15T18:23:58.495Z,14.20
2018-07-15T18:26:28.218Z,15.63
2018-07-15T18:28:57.882Z,16.27
2018-07-15T18:31:27.336Z,15.20
2018-07-15T18:33:56.944Z,11.25
2018-07-15T18:36:26.305Z,10.63
2018-07-15T18:38:55.537Z,11.27
2018-07-15T18:41:26.163Z,11.40
2018-07-15T18:43:55.397Z,11.18
2018-07-15T18:46:27.624Z,10.67
2018-07-15T18:48:57.072Z,9.30
2018-07-15T18:51:26.077Z,9.97
2018-07-15T18:53:55.405Z,8.73
2018-07-15T18:56:24.683Z,9.93
2018-07-15T18:58:54.152Z,9.63
2018-07-15T19:01:24.008Z,8.97
2018-07-15T19:03:53.562Z,10.23
2018-07-15T19:06:22.553Z,9.70
2018-07-15T19:08:52.228Z,10.63
2018-07-15T19:11:21.615Z,6.70
2018-07-15T19:13:51.587Z,7.97
2018-07-15T19:16:20.900Z,7.23
2018-07-15T19:18:50.094Z,6.90
2018-07-15T19:21:19.551Z,7.83
2018-07-15T19:23:48.956Z,10.43
2018-07-15T19:26:19.044Z,8.10
2018-07-15T19:28:48.168Z,9.33
2018-07-15T19:31:17.565Z,11.47
2018-07-15T19:33:46.809Z,7.80
2018-07-15T19:36:16.049Z,21.87
2018-07-15T19:38:45.573Z,20.10
2018-07-15T19:41:14.980Z,10.53
2018-07-15T19:43:44.294Z,10.00
2018-07-15T19:46:13.568Z,11.33
2018-07-15T19:48:43.089Z,12.27
2018-07-15T19:51:12.937Z,9.23
2018-07-15T19:53:42.448Z,11.27
2018-07-15T19:56:12.089Z,10.67
2018-07-15T19:58:41.459Z,12.20
2018-07-15T20:01:11.163Z,12.47
2018-07-15T20:03:40.196Z,18.97
2018-07-15T20:06:09.501Z,23.90
2018-07-15T20:08:38.949Z,28.97
2018-07-15T20:11:08.663Z,25.43
2018-07-15T20:13:38.060Z,24.03
2018-07-15T20:16:07.220Z,27.83
2018-07-15T20:18:37.038Z,23.33
2018-07-15T20:21:06.420Z,16.53
2018-07-15T20:23:35.921Z,16.63
2018-07-15T20:26:05.456Z,15.07
2018-07-15T20:28:34.689Z,11.40
2018-07-15T20:31:04.068Z,12.83
2018-07-15T20:33:33.281Z,13.93
2018-07-15T20:36:02.567Z,10.63
2018-07-15T20:38:31.948Z,11.60
2018-07-15T20:41:01.547Z,12.83
2018-07-15T20:43:31.281Z,14.60
2018-07-15T20:46:00.764Z,11.60
2018-07-15T20:48:30.962Z,13.87
2018-07-15T20:51:00.322Z,12.63
2018-07-15T20:53:29.579Z,11.47
2018-07-15T20:55:58.771Z,13.93
2018-07-15T20:58:27.984Z,10.97
2018-07-15T21:00:57.175Z,11.90
2018-07-15T21:03:26.652Z,11.17
2018-07-15T21:05:55.770Z,10.33
2018-07-15T21:08:25.420Z,10.37
2018-07-15T21:10:54.729Z,10.80
2018-07-15T21:13:23.920Z,9.37
2018-07-15T21:15:53.141Z,11.67
2018-07-15T21:18:22.623Z,17.17
2018-07-15T21:20:51.772Z,16.10
2018-07-15T21:23:21.023Z,12.77
2018-07-15T21:25:50.195Z,10.07
2018-07-15T21:28:19.484Z,9.43
2018-07-15T21:30:48.612Z,11.97
2018-07-15T21:33:18.165Z,7.40
2018-07-15T21:35:47.447Z,10.30
2018-07-15T21:38:16.843Z,10.00
2018-07-15T21:40:46.309Z,10.17
2018-07-15T21:43:15.596Z,9.63
2018-07-15T21:45:45.077Z,11.00
2018-07-15T21:48:14.377Z,12.30
2018-07-15T21:50:43.739Z,13.80
2018-07-15T21:53:13.010Z,13.50
2018-07-15T21:55:42.048Z,13.03
2018-07-15T21:58:11.349Z,12.13
2018-07-15T22:00:42.236Z,17.07
2018-07-15T22:03:12.042Z,14.57
2018-07-15T22:05:54.694Z,9.47
2018-07-15T22:08:38.437Z,9.70
2018-07-15T22:11:08.814Z,9.50
2018-07-15T22:13:37.486Z,18.97
2018-07-15T22:16:07.021Z,13.30
2018-07-15T22:18:36.403Z,9.10
2018-07-15T22:21:05.674Z,7.53
2018-07-15T22:23:34.952Z,8.70
2018-07-15T22:26:04.028Z,6.53
2018-07-15T22:28:33.195Z,9.47
2018-07-15T22:31:02.375Z,9.47
2018-07-15T22:33:31.770Z,9.17
2018-07-15T22:36:00.988Z,11.07
2018-07-15T22:38:30.160Z,8.07
2018-07-15T22:40:59.355Z,8.97
2018-07-15T22:43:28.592Z,8.80
2018-07-15T22:45:58.062Z,8.10
2018-07-15T22:48:27.463Z,8.00
2018-07-15T22:50:56.817Z,7.53
2018-07-15T22:53:26.098Z,6.87
2018-07-15T22:55:55.217Z,8.47
2018-07-15T22:58:24.696Z,8.17
2018-07-15T23:00:53.888Z,8.67
2018-07-15T23:03:22.908Z,8.73
2018-07-15T23:06:03.112Z,7.33
2018-07-15T23:08:33.162Z,7.53
2018-07-15T23:11:02.699Z,6.37
2018-07-15T23:13:31.819Z,6.30
2018-07-15T23:16:01.020Z,6.33
2018-07-15T23:18:30.386Z,6.93
2018-07-15T23:20:59.475Z,9.03
2018-07-15T23:23:28.572Z,9.47
2018-07-15T23:25:57.736Z,8.07
2018-07-15T23:28:27.807Z,11.77
2018-07-15T23:30:57.023Z,7.23
2018-07-15T23:33:26.167Z,7.10
2018-07-15T23:35:55.443Z,8.07
2018-07-15T23:38:24.564Z,7.27
2018-07-15T23:40:53.652Z,8.17
2018-07-15T23:43:22.939Z,6.77
2018-07-15T23:45:52.103Z,6.73
2018-07-15T23:48:21.279Z,6.60
2018-07-15T23:50:50.583Z,7.83
2018-07-15T23:53:19.944Z,7.50
2018-07-15T23:55:49.405Z,7.00
2018-07-15T23:58:18.575Z,7.07
